createdAt,value
2022-10-25T00:02:15.508Z,80.98
2022-10-25T00:04:42.244Z,78.49
2022-10-25T00:07:09.322Z,80.11
2022-10-25T00:09:35.824Z,80.80
2022-10-25T00:12:02.377Z,81.64
2022-10-25T00:14:28.902Z,78.82
2022-10-25T00:16:55.407Z,80.04
2022-10-25T00:19:21.917Z,80.10
2022-10-25T00:21:48.409Z,81.00
2022-10-25T00:24:15.604Z,79.75
2022-10-25T00:26:42.122Z,79.02
2022-10-25T00:29:09.926Z,79.42
2022-10-25T00:31:37.451Z,79.15
2022-10-25T00:34:04.536Z,79.87
2022-10-25T00:36:31.211Z,79.73
2022-10-25T00:38:58.658Z,79.68
2022-10-25T00:41:28.254Z,79.19
2022-10-25T00:43:57.288Z,79.71
2022-10-25T00:46:27.557Z,80.00
2022-10-25T00:49:10.345Z,79.61
2022-10-25T00:51:37.766Z,79.49
2022-10-25T00:54:04.919Z,80.24
2022-10-25T00:56:34.218Z,78.93
2022-10-25T00:59:02.501Z,79.07
2022-10-25T01:01:29.220Z,78.42
2022-10-25T01:03:58.348Z,79.55
2022-10-25T01:06:39.174Z,77.89
2022-10-25T01:09:07.370Z,78.63
2022-10-25T01:11:36.124Z,78.37
2022-10-25T01:14:02.688Z,77.73
2022-10-25T01:16:45.813Z,78.86
2022-10-25T01:19:12.218Z,79.24
2022-10-25T01:21:49.957Z,78.77
2022-10-25T01:24:37.674Z,79.14
2022-10-25T01:27:27.395Z,78.73
2022-10-25T01:30:07.358Z,78.82
2022-10-25T01:32:42.460Z,80.27
2022-10-25T01:35:16.612Z,79.43
2022-10-25T01:37:57.155Z,78.71
2022-10-25T01:40:32.631Z,78.52
2022-10-25T01:43:14.305Z,79.00
2022-10-25T01:45:43.642Z,79.65
2022-10-25T01:48:15.208Z,80.25
2022-10-25T01:50:44.014Z,80.45
2022-10-25T01:53:10.561Z,81.37
2022-10-25T01:55:44.048Z,81.95
2022-10-25T01:58:25.435Z,80.65
2022-10-25T02:01:41.704Z,80.72
2022-10-25T02:04:18.800Z,79.27
2022-10-25T02:07:00.757Z,81.56
2022-10-25T02:09:34.344Z,81.44
2022-10-25T02:12:02.685Z,81.98
2022-10-25T02:14:34.207Z,81.88
2022-10-25T02:17:17.864Z,81.33
2022-10-25T02:19:50.307Z,81.82
2022-10-25T02:22:20.022Z,81.89
2022-10-25T02:24:47.371Z,81.34
2022-10-25T02:27:14.482Z,81.51
2022-10-25T02:29:41.548Z,81.86
2022-10-25T02:32:08.578Z,82.59
2022-10-25T02:34:35.056Z,81.48
2022-10-25T02:37:01.528Z,83.70
2022-10-25T02:39:31.315Z,80.96
2022-10-25T02:41:58.481Z,83.29
2022-10-25T02:45:21.038Z,82.13
2022-10-25T02:47:47.837Z,81.82
2022-10-25T02:50:14.685Z,83.63
2022-10-25T02:52:41.149Z,81.90
2022-10-25T02:55:08.041Z,84.14
2022-10-25T02:57:35.705Z,83.92
2022-10-25T03:00:03.581Z,82.65
2022-10-25T03:02:30.011Z,82.56
2022-10-25T03:04:56.471Z,83.35
2022-10-25T03:07:22.983Z,83.94
2022-10-25T03:09:49.428Z,83.00
2022-10-25T03:12:15.909Z,82.03
2022-10-25T03:14:42.357Z,81.27
2022-10-25T03:17:08.801Z,83.05
2022-10-25T03:19:35.279Z,83.01
2022-10-25T03:22:01.719Z,81.77
2022-10-25T03:24:28.282Z,84.26
2022-10-25T03:26:54.701Z,83.53
2022-10-25T03:29:21.186Z,82.73
2022-10-25T03:31:47.649Z,82.08
2022-10-25T03:34:14.149Z,81.93
2022-10-25T03:36:40.630Z,81.85
2022-10-25T03:39:07.077Z,83.98
2022-10-25T03:41:33.517Z,81.54
2022-10-25T03:43:59.960Z,81.69
2022-10-25T03:46:26.511Z,81.58
2022-10-25T03:48:52.953Z,82.62
2022-10-25T03:51:19.418Z,83.68
2022-10-25T03:53:46.685Z,81.61
2022-10-25T03:56:13.174Z,81.55
2022-10-25T03:58:39.618Z,82.60
2022-10-25T04:01:09.105Z,81.27
2022-10-25T04:03:35.871Z,81.82
2022-10-25T04:06:02.455Z,82.06
2022-10-25T04:08:28.885Z,83.35
2022-10-25T04:10:55.329Z,81.27
2022-10-25T04:13:21.760Z,81.66
2022-10-25T04:15:48.246Z,81.17
2022-10-25T04:18:14.683Z,81.41
2022-10-25T04:20:41.134Z,80.14
2022-10-25T04:23:08.001Z,80.66
2022-10-25T04:25:34.692Z,80.98
2022-10-25T04:28:01.211Z,80.30
2022-10-25T04:30:27.726Z,81.02
2022-10-25T04:32:54.221Z,80.06
2022-10-25T04:35:20.766Z,82.04
2022-10-25T04:37:47.226Z,82.09
2022-10-25T04:40:13.728Z,81.26
2022-10-25T04:42:40.270Z,83.03
2022-10-25T04:45:07.300Z,83.29
2022-10-25T04:47:34.112Z,82.88
2022-10-25T04:50:00.630Z,83.05
2022-10-25T04:52:29.097Z,82.14
2022-10-25T04:54:56.054Z,82.06
2022-10-25T04:57:22.532Z,83.18
2022-10-25T04:59:49.029Z,81.75
2022-10-25T05:02:15.557Z,83.27
2022-10-25T05:04:42.508Z,81.95
2022-10-25T05:07:08.980Z,81.47
2022-10-25T05:09:35.441Z,83.61
2022-10-25T05:12:01.881Z,82.27
2022-10-25T05:14:28.391Z,83.14
2022-10-25T05:16:54.826Z,82.55
2022-10-25T05:19:21.279Z,83.20
2022-10-25T05:21:47.837Z,82.06
2022-10-25T05:24:14.302Z,81.19
2022-10-25T05:26:41.178Z,81.65
2022-10-25T05:29:10.298Z,83.08
2022-10-25T05:31:38.645Z,83.97
2022-10-25T05:34:05.106Z,83.59
2022-10-25T05:36:33.368Z,84.24
2022-10-25T05:39:01.091Z,85.27
2022-10-25T05:41:29.670Z,83.69
2022-10-25T05:43:59.178Z,83.70
2022-10-25T05:46:25.680Z,83.96
2022-10-25T05:48:53.624Z,83.14
2022-10-25T05:51:34.757Z,83.31
2022-10-25T05:54:10.911Z,83.00
2022-10-25T05:56:37.621Z,82.11
2022-10-25T05:59:09.567Z,83.31
2022-10-25T06:01:42.970Z,82.54
2022-10-25T06:04:10.051Z,83.45
2022-10-25T06:06:37.875Z,82.68
2022-10-25T06:09:05.842Z,83.47
2022-10-25T06:11:32.819Z,83.43
2022-10-25T06:13:59.301Z,83.33
2022-10-25T06:16:25.950Z,83.89
2022-10-25T06:18:52.976Z,82.55
2022-10-25T06:21:21.607Z,82.06
2022-10-25T06:23:48.678Z,82.18
2022-10-25T06:26:17.938Z,81.04
2022-10-25T06:28:44.546Z,80.46
2022-10-25T06:31:13.214Z,83.27
2022-10-25T06:33:39.855Z,82.05
2022-10-25T06:36:07.533Z,83.20
2022-10-25T06:38:34.091Z,81.16
2022-10-25T06:41:02.651Z,81.53
2022-10-25T06:43:29.930Z,81.84
2022-10-25T06:45:56.810Z,81.23
2022-10-25T06:48:23.521Z,81.37
2022-10-25T06:51:04.439Z,82.42
2022-10-25T06:53:31.279Z,82.91
2022-10-25T06:56:05.182Z,82.33
2022-10-25T06:58:33.389Z,80.79
2022-10-25T07:01:08.292Z,82.24
2022-10-25T07:03:35.338Z,80.69
2022-10-25T07:06:06.147Z,79.64
2022-10-25T07:08:36.809Z,81.58
2022-10-25T07:11:03.847Z,81.28
2022-10-25T07:13:31.558Z,80.33
2022-10-25T07:16:06.086Z,80.15
2022-10-25T07:18:33.376Z,80.47
2022-10-25T07:21:00.811Z,80.35
2022-10-25T07:23:29.113Z,81.92
2022-10-25T07:25:55.582Z,80.05
2022-10-25T07:28:22.486Z,79.67
2022-10-25T07:30:49.125Z,80.77
2022-10-25T07:33:17.538Z,79.22
2022-10-25T07:35:59.085Z,80.32
2022-10-25T07:38:32.885Z,81.34
2022-10-25T07:40:59.454Z,79.16
2022-10-25T07:43:26.721Z,79.83
2022-10-25T07:45:53.539Z,80.54
2022-10-25T07:48:20.412Z,79.43
2022-10-25T07:50:46.873Z,78.52
2022-10-25T07:53:13.451Z,80.34
2022-10-25T07:55:40.019Z,79.56
2022-10-25T07:58:08.415Z,80.05
2022-10-25T08:00:35.767Z,80.30
2022-10-25T08:03:02.402Z,79.89
2022-10-25T08:05:28.967Z,79.88
2022-10-25T08:07:55.443Z,79.00
2022-10-25T08:10:22.165Z,78.31
2022-10-25T08:12:49.673Z,79.10
2022-10-25T08:15:16.925Z,79.09
2022-10-25T08:17:43.421Z,78.27
2022-10-25T08:20:10.077Z,78.11
2022-10-25T08:22:36.500Z,77.17
2022-10-25T08:25:05.261Z,78.63
2022-10-25T08:27:32.397Z,80.13
2022-10-25T08:29:58.898Z,79.63
2022-10-25T08:32:25.342Z,78.53
2022-10-25T08:34:51.798Z,77.63
2022-10-25T08:37:18.340Z,80.68
2022-10-25T08:39:45.008Z,79.40
2022-10-25T08:42:19.764Z,78.89
2022-10-25T08:44:54.285Z,79.97
2022-10-25T08:47:33.567Z,79.35
2022-10-25T08:50:03.412Z,78.79
2022-10-25T08:52:34.765Z,78.18
2022-10-25T08:55:05.683Z,78.90
2022-10-25T08:57:34.544Z,80.34
2022-10-25T09:00:07.386Z,77.75
2022-10-25T09:02:52.976Z,78.20
2022-10-25T09:05:38.769Z,77.15
2022-10-25T09:08:33.869Z,78.07
2022-10-25T09:11:19.247Z,76.93
2022-10-25T09:13:55.116Z,75.95
2022-10-25T09:16:47.199Z,77.38
2022-10-25T09:19:29.288Z,77.45
2022-10-25T09:22:00.760Z,76.30
2022-10-25T09:24:38.444Z,76.18
2022-10-25T09:27:35.729Z,76.63
2022-10-25T09:30:07.392Z,75.37
2022-10-25T09:32:43.297Z,75.74
2022-10-25T09:35:16.055Z,75.86
2022-10-25T09:37:49.213Z,76.72
2022-10-25T09:40:19.707Z,77.41
2022-10-25T09:43:18.855Z,75.62
2022-10-25T09:45:55.132Z,78.00
2022-10-25T09:48:24.835Z,77.09
2022-10-25T09:51:13.231Z,77.66
2022-10-25T09:53:41.000Z,77.35
2022-10-25T09:56:07.780Z,74.97
2022-10-25T09:58:38.334Z,75.63
2022-10-25T10:01:19.543Z,75.93
2022-10-25T10:03:48.934Z,76.11
2022-10-25T10:06:52.152Z,74.00
2022-10-25T10:09:18.573Z,73.61
2022-10-25T10:11:46.618Z,74.51
2022-10-25T10:14:31.237Z,74.46
2022-10-25T10:16:58.827Z,74.10
2022-10-25T10:19:29.876Z,74.38
2022-10-25T10:21:58.595Z,73.75
2022-10-25T10:24:45.350Z,74.56
2022-10-25T10:27:20.903Z,74.09
2022-10-25T10:29:59.681Z,73.30
2022-10-25T10:32:29.236Z,74.06
2022-10-25T10:34:57.450Z,73.76
2022-10-25T10:37:25.547Z,73.31
2022-10-25T10:40:08.248Z,73.75
2022-10-25T10:42:37.185Z,74.40
2022-10-25T10:45:09.898Z,73.95
2022-10-25T10:47:56.306Z,74.70
2022-10-25T10:50:22.851Z,72.54
2022-10-25T10:52:59.355Z,74.21
2022-10-25T10:55:37.610Z,74.34
2022-10-25T10:58:15.346Z,72.40
2022-10-25T11:00:50.194Z,70.78
2022-10-25T11:03:35.565Z,71.87
2022-10-25T11:06:02.190Z,72.65
2022-10-25T11:08:28.677Z,72.91
2022-10-25T11:11:21.737Z,71.60
2022-10-25T11:13:57.066Z,71.67
2022-10-25T11:16:42.054Z,71.95
2022-10-25T11:19:11.537Z,71.94
2022-10-25T11:21:43.821Z,71.31
2022-10-25T11:24:29.201Z,72.35
2022-10-25T11:27:20.804Z,73.14
2022-10-25T11:30:20.095Z,72.91
2022-10-25T11:33:12.890Z,72.71
2022-10-25T11:36:02.166Z,73.39
2022-10-25T11:38:50.311Z,75.70
2022-10-25T11:41:30.235Z,74.64
2022-10-25T11:44:02.445Z,72.46
2022-10-25T11:46:31.550Z,70.27
2022-10-25T11:49:10.147Z,69.91
2022-10-25T11:51:55.355Z,70.78
2022-10-25T11:54:30.804Z,69.63
2022-10-25T11:57:28.651Z,69.08
2022-10-25T12:00:08.441Z,68.65
2022-10-25T12:02:59.849Z,68.82
2022-10-25T12:05:42.497Z,69.07
2022-10-25T12:08:11.897Z,70.05
2022-10-25T12:10:42.316Z,68.90
2022-10-25T12:13:27.080Z,69.30
2022-10-25T12:15:55.449Z,67.90
2022-10-25T12:18:39.470Z,68.90
2022-10-25T12:21:07.241Z,70.44
2022-10-25T12:23:45.717Z,68.93
2022-10-25T12:26:34.703Z,67.84
2022-10-25T12:29:04.035Z,67.89
2022-10-25T12:31:36.904Z,68.39
2022-10-25T12:34:16.498Z,68.79
2022-10-25T12:36:57.583Z,67.26
2022-10-25T12:39:28.367Z,66.63
2022-10-25T12:42:04.378Z,66.80
2022-10-25T12:44:35.407Z,68.40
2022-10-25T12:47:11.342Z,69.08
2022-10-25T12:50:00.430Z,68.28
2022-10-25T12:52:36.917Z,68.18
2022-10-25T12:55:38.098Z,65.99
2022-10-25T12:58:19.113Z,66.02
2022-10-25T13:01:13.009Z,67.77
2022-10-25T13:03:52.321Z,66.10
2022-10-25T13:06:33.832Z,65.23
2022-10-25T13:09:04.842Z,66.08
2022-10-25T13:11:36.757Z,65.29
2022-10-25T13:14:03.780Z,65.51
2022-10-25T13:16:32.497Z,65.63
2022-10-25T13:19:25.931Z,66.10
2022-10-25T13:22:11.913Z,66.13
2022-10-25T13:24:43.572Z,64.77
2022-10-25T13:27:13.260Z,65.95
2022-10-25T13:29:50.694Z,65.67
2022-10-25T13:32:20.803Z,64.70
2022-10-25T13:34:47.816Z,64.43
2022-10-25T13:37:41.137Z,65.32
2022-10-25T13:40:28.760Z,66.27
2022-10-25T13:43:07.024Z,67.68
2022-10-25T13:45:38.760Z,67.07
2022-10-25T13:48:14.414Z,67.44
2022-10-25T13:50:46.565Z,68.40
2022-10-25T13:53:12.950Z,67.64
2022-10-25T13:55:48.548Z,66.67
2022-10-25T13:58:32.083Z,66.16
2022-10-25T14:01:18.877Z,67.11
2022-10-25T14:04:03.735Z,67.13
2022-10-25T14:06:43.095Z,67.77
2022-10-25T14:09:18.211Z,68.57
2022-10-25T14:11:48.519Z,67.60
2022-10-25T14:14:44.429Z,67.53
2022-10-25T14:17:35.757Z,67.81
2022-10-25T14:20:09.972Z,67.69
2022-10-25T14:22:40.605Z,66.82
2022-10-25T14:25:37.461Z,67.62
2022-10-25T14:28:09.878Z,67.20
2022-10-25T14:30:42.358Z,67.59
2022-10-25T14:33:29.743Z,68.33
2022-10-25T14:36:05.437Z,69.24
2022-10-25T14:38:34.813Z,68.91
2022-10-25T14:41:03.938Z,67.38
2022-10-25T14:43:32.767Z,68.97
2022-10-25T14:46:03.920Z,68.59
2022-10-25T14:48:30.656Z,67.43
2022-10-25T14:51:00.101Z,67.10
2022-10-25T14:53:28.493Z,68.39
2022-10-25T14:56:03.079Z,68.76
2022-10-25T14:58:40.722Z,67.34
2022-10-25T15:01:07.681Z,66.93
2022-10-25T15:03:40.386Z,67.65
2022-10-25T15:06:07.066Z,67.75
2022-10-25T15:08:36.581Z,67.82
2022-10-25T15:11:08.092Z,67.89
2022-10-25T15:13:45.064Z,66.50
2022-10-25T15:16:30.825Z,67.00
2022-10-25T15:19:03.367Z,67.66
2022-10-25T15:21:46.094Z,67.89
2022-10-25T15:24:13.980Z,67.74
2022-10-25T15:27:02.421Z,69.33
2022-10-25T15:29:49.187Z,67.67
2022-10-25T15:32:27.657Z,67.48
2022-10-25T15:34:56.645Z,67.70
2022-10-25T15:37:24.492Z,68.02
2022-10-25T15:39:52.707Z,67.71
2022-10-25T15:42:19.844Z,68.20
2022-10-25T15:44:46.363Z,67.86
2022-10-25T15:47:40.074Z,67.64
2022-10-25T15:50:18.522Z,68.78
2022-10-25T15:52:45.596Z,69.16
2022-10-25T15:55:19.767Z,71.44
2022-10-25T15:57:46.846Z,70.18
2022-10-25T16:00:24.213Z,70.77
2022-10-25T16:02:53.909Z,70.37
2022-10-25T16:05:24.196Z,69.66
2022-10-25T16:07:51.133Z,71.17
2022-10-25T16:10:19.128Z,70.81
2022-10-25T16:12:48.279Z,70.16
2022-10-25T16:15:16.682Z,69.69
2022-10-25T16:17:45.491Z,70.78
2022-10-25T16:20:16.501Z,71.67
2022-10-25T16:22:43.016Z,71.30
2022-10-25T16:25:09.629Z,71.59
2022-10-25T16:27:36.270Z,71.83
2022-10-25T16:30:03.327Z,70.94
2022-10-25T16:32:29.844Z,71.32
2022-10-25T16:34:56.262Z,71.28
2022-10-25T16:37:22.731Z,71.67
2022-10-25T16:39:49.149Z,72.20
2022-10-25T16:42:33.398Z,72.31
2022-10-25T16:45:00.438Z,71.90
2022-10-25T16:47:27.172Z,73.24
2022-10-25T16:49:54.219Z,73.30
2022-10-25T16:52:21.234Z,72.47
2022-10-25T16:54:47.861Z,71.94
2022-10-25T16:57:14.764Z,73.05
2022-10-25T16:59:41.242Z,72.60
2022-10-25T17:02:16.602Z,72.74
2022-10-25T17:04:44.627Z,72.66
2022-10-25T17:07:11.441Z,72.57
2022-10-25T17:09:37.927Z,72.23
2022-10-25T17:12:05.400Z,72.05
2022-10-25T17:14:34.949Z,71.78
2022-10-25T17:17:04.490Z,72.25
2022-10-25T17:19:31.130Z,72.09
2022-10-25T17:21:57.656Z,72.21
2022-10-25T17:24:25.353Z,72.47
2022-10-25T17:26:52.368Z,73.43
2022-10-25T17:29:19.218Z,74.36
2022-10-25T17:31:45.725Z,73.77
2022-10-25T17:34:12.951Z,73.53
2022-10-25T17:36:39.505Z,73.61
2022-10-25T17:39:07.826Z,72.69
2022-10-25T17:41:34.586Z,72.98
2022-10-25T17:44:01.071Z,74.47
2022-10-25T17:46:29.687Z,74.63
2022-10-25T17:48:59.950Z,74.54
2022-10-25T17:51:26.362Z,74.20
2022-10-25T17:53:54.289Z,73.76
2022-10-25T17:56:22.184Z,74.57
2022-10-25T17:58:49.482Z,75.64
2022-10-25T18:01:24.679Z,74.44
2022-10-25T18:03:51.738Z,74.84
2022-10-25T18:06:20.073Z,75.21
2022-10-25T18:08:50.993Z,75.13
2022-10-25T18:11:24.417Z,75.66
2022-10-25T18:13:52.534Z,76.01
2022-10-25T18:16:21.571Z,76.75
2022-10-25T18:18:48.601Z,76.48
2022-10-25T18:21:15.902Z,77.18
2022-10-25T18:23:42.623Z,76.50
2022-10-25T18:26:11.052Z,77.18
2022-10-25T18:28:37.789Z,77.74
2022-10-25T18:31:07.053Z,76.10
2022-10-25T18:33:34.787Z,77.58
2022-10-25T18:36:07.068Z,76.48
2022-10-25T18:38:34.179Z,75.11
2022-10-25T18:41:04.741Z,76.72
2022-10-25T18:43:31.304Z,77.55
2022-10-25T18:45:58.041Z,76.41
2022-10-25T18:48:25.161Z,76.89
2022-10-25T18:50:51.888Z,77.20
2022-10-25T18:53:19.148Z,77.44
2022-10-25T18:55:46.724Z,76.81
2022-10-25T18:58:15.043Z,77.08
2022-10-25T19:00:43.434Z,76.19
2022-10-25T19:03:11.897Z,76.83
2022-10-25T19:05:40.077Z,76.07
2022-10-25T19:08:07.997Z,76.46
2022-10-25T19:10:43.580Z,75.88
2022-10-25T19:13:19.752Z,75.53
2022-10-25T19:15:47.024Z,75.43
2022-10-25T19:18:14.577Z,75.95
2022-10-25T19:20:45.552Z,76.28
2022-10-25T19:23:14.038Z,76.07
2022-10-25T19:25:40.857Z,76.16
2022-10-25T19:28:07.702Z,76.11
2022-10-25T19:30:39.079Z,75.65
2022-10-25T19:33:07.154Z,75.66
2022-10-25T19:35:33.677Z,75.92
2022-10-25T19:38:00.354Z,76.16
2022-10-25T19:40:26.786Z,76.55
2022-10-25T19:42:53.401Z,76.43
2022-10-25T19:45:20.170Z,76.55
2022-10-25T19:47:47.356Z,77.23
2022-10-25T19:50:14.308Z,77.72
2022-10-25T19:52:40.833Z,76.74
2022-10-25T19:55:07.609Z,76.33
2022-10-25T19:57:34.878Z,76.26
2022-10-25T20:00:02.219Z,76.86
2022-10-25T20:02:29.539Z,77.22
2022-10-25T20:04:56.187Z,76.40
2022-10-25T20:07:22.834Z,75.79
2022-10-25T20:09:49.289Z,76.09
2022-10-25T20:12:15.898Z,76.72
2022-10-25T20:14:42.849Z,76.17
2022-10-25T20:17:09.348Z,76.20
2022-10-25T20:19:35.897Z,76.83
2022-10-25T20:22:04.544Z,76.25
2022-10-25T20:24:31.144Z,75.69
2022-10-25T20:26:59.889Z,75.14
2022-10-25T20:29:26.914Z,74.33
2022-10-25T20:31:53.437Z,74.90
2022-10-25T20:34:20.295Z,75.89
2022-10-25T20:36:47.543Z,76.22
2022-10-25T20:39:14.443Z,75.09
2022-10-25T20:41:41.044Z,76.19
2022-10-25T20:44:08.849Z,75.29
2022-10-25T20:46:35.553Z,76.25
2022-10-25T20:49:02.597Z,76.67
2022-10-25T20:51:29.348Z,75.69
2022-10-25T20:53:57.158Z,76.12
2022-10-25T20:56:24.447Z,77.41
2022-10-25T20:58:51.188Z,78.53
2022-10-25T21:01:17.878Z,78.23
2022-10-25T21:03:45.484Z,79.39
2022-10-25T21:06:13.809Z,79.86
2022-10-25T21:08:41.150Z,79.22
2022-10-25T21:11:10.202Z,79.07
2022-10-25T21:13:37.325Z,78.85
2022-10-25T21:16:13.964Z,79.80
2022-10-25T21:18:41.096Z,78.40
2022-10-25T21:21:10.750Z,80.48
2022-10-25T21:23:38.182Z,79.18
2022-10-25T21:26:07.269Z,79.45
2022-10-25T21:28:36.403Z,79.14
2022-10-25T21:31:05.785Z,79.84
2022-10-25T21:33:32.525Z,79.51
2022-10-25T21:36:06.168Z,78.19
2022-10-25T21:38:32.677Z,77.94
2022-10-25T21:41:28.456Z,79.13
2022-10-25T21:43:56.159Z,78.40
2022-10-25T21:46:24.139Z,79.11
2022-10-25T21:48:51.186Z,79.41
2022-10-25T21:51:19.625Z,80.68
2022-10-25T21:53:47.688Z,79.51
2022-10-25T21:56:16.661Z,78.85
2022-10-25T21:58:44.801Z,78.23
2022-10-25T22:01:14.461Z,79.22
2022-10-25T22:03:41.476Z,79.77
2022-10-25T22:06:09.400Z,79.88
2022-10-25T22:08:35.945Z,79.36
2022-10-25T22:11:07.647Z,79.16
2022-10-25T22:13:34.400Z,78.79
2022-10-25T22:16:04.730Z,78.02
2022-10-25T22:18:31.435Z,79.03
2022-10-25T22:21:00.917Z,78.03
2022-10-25T22:23:29.069Z,78.21
2022-10-25T22:25:58.947Z,78.83
2022-10-25T22:28:25.429Z,79.22
2022-10-25T22:31:06.201Z,79.63
2022-10-25T22:33:33.192Z,79.73
2022-10-25T22:36:13.529Z,79.77
2022-10-25T22:38:40.463Z,80.72
2022-10-25T22:41:15.973Z,80.50
2022-10-25T22:43:42.789Z,80.73
2022-10-25T22:46:18.120Z,79.65
2022-10-25T22:48:44.806Z,80.27
2022-10-25T22:51:12.176Z,79.35
2022-10-25T22:53:39.528Z,79.49
2022-10-25T22:56:09.698Z,80.12
2022-10-25T22:58:36.567Z,80.08
2022-10-25T23:01:06.186Z,78.63
2022-10-25T23:03:33.561Z,78.74
2022-10-25T23:06:01.065Z,79.98
2022-10-25T23:08:28.298Z,78.84
2022-10-25T23:11:14.747Z,78.79
2022-10-25T23:13:42.055Z,78.83
2022-10-25T23:16:09.393Z,79.35
2022-10-25T23:18:36.043Z,80.25
2022-10-25T23:21:03.929Z,80.14
2022-10-25T23:23:34.113Z,79.21
2022-10-25T23:26:01.153Z,78.92
2022-10-25T23:28:30.184Z,79.45
2022-10-25T23:30:56.710Z,79.79
2022-10-25T23:33:23.145Z,78.82
2022-10-25T23:35:49.607Z,79.49
2022-10-25T23:38:16.058Z,79.66
2022-10-25T23:40:46.846Z,80.39
2022-10-25T23:43:13.421Z,79.33
2022-10-25T23:45:41.958Z,79.17
2022-10-25T23:48:08.426Z,79.26
2022-10-25T23:50:34.870Z,79.29
2022-10-25T23:53:01.396Z,78.98
2022-10-25T23:55:27.840Z,79.85
2022-10-25T23:57:57.851Z,79.72
